Terminal Aerodrome Forecast
Issued by NWS

Home | Current Version | Previous Version | Graphics & Text | Print | Product List | Glossary On
Versions: 1 2 3 4 5 6 7 8 9 10 11 12 13 14 15 16 17 18 19 20 21 22 23 24 25 26 27
134
FTUS43 KLSX 191130
TAFSUS
TAF
KSUS 191130Z 1912/2012 19013G19KT 3SM SHRA VCTS OVC020CB
      WS017/21050KT
      TEMPO 1912/1914 5SM -TSRA
     FM191500 20015G26KT P6SM -SHRA VCTS OVC030CB
     FM191800 20015G26KT 4SM -SHRA VCTS OVC035CB
     FM200000 18012G25KT P6SM VCSH OVC035
     FM200400 19013G21KT P6SM -SHRA OVC020=

USA.gov is the U.S. government's official web portal to all federal, state and local government web resources and services.